sensor_id;sensor_type;location;lat;lon;timestamp;temperature;humidity
52555;DHT22;38455;52.710;6.502;2023-04-16T00:01:27;9.10;99.90
52555;DHT22;38455;52.710;6.502;2023-04-16T00:03:53;9.10;99.90
52555;DHT22;38455;52.710;6.502;2023-04-16T00:06:19;9.10;99.90
52555;DHT22;38455;52.710;6.502;2023-04-16T00:08:45;9.20;99.90
52555;DHT22;38455;52.710;6.502;2023-04-16T00:11:10;9.10;99.90
52555;DHT22;38455;52.710;6.502;2023-04-16T00:13:36;9.10;99.90
52555;DHT22;38455;52.710;6.502;2023-04-16T00:16:02;9.20;99.90
52555;DHT22;38455;52.710;6.502;2023-04-16T00:18:27;9.10;99.90
52555;DHT22;38455;52.710;6.502;2023-04-16T00:20:53;9.10;99.90
52555;DHT22;38455;52.710;6.502;2023-04-16T00:23:19;9.10;99.90
52555;DHT22;38455;52.710;6.502;2023-04-16T00:25:45;9.10;99.90
52555;DHT22;38455;52.710;6.502;2023-04-16T00:28:11;9.10;99.90
52555;DHT22;38455;52.710;6.502;2023-04-16T00:30:36;9.00;99.90
52555;DHT22;38455;52.710;6.502;2023-04-16T00:33:02;9.10;99.90
52555;DHT22;38455;52.710;6.502;2023-04-16T00:35:29;9.00;99.90
52555;DHT22;38455;52.710;6.502;2023-04-16T00:37:54;9.00;99.90
52555;DHT22;38455;52.710;6.502;2023-04-16T00:40:20;9.00;99.90
52555;DHT22;38455;52.710;6.502;2023-04-16T00:42:46;9.10;99.90
52555;DHT22;38455;52.710;6.502;2023-04-16T00:45:12;9.10;99.90
52555;DHT22;38455;52.710;6.502;2023-04-16T00:47:37;9.00;99.90
52555;DHT22;38455;52.710;6.502;2023-04-16T00:50:03;9.00;99.90
52555;DHT22;38455;52.710;6.502;2023-04-16T00:52:31;9.00;99.90
52555;DHT22;38455;52.710;6.502;2023-04-16T00:54:57;9.10;99.90
52555;DHT22;38455;52.710;6.502;2023-04-16T00:57:23;8.90;99.90
52555;DHT22;38455;52.710;6.502;2023-04-16T00:59:49;9.10;99.90
52555;DHT22;38455;52.710;6.502;2023-04-16T01:02:15;9.00;99.90
52555;DHT22;38455;52.710;6.502;2023-04-16T01:04:41;9.10;99.90
52555;DHT22;38455;52.710;6.502;2023-04-16T01:07:07;9.10;99.90
52555;DHT22;38455;52.710;6.502;2023-04-16T01:09:32;9.10;99.90
52555;DHT22;38455;52.710;6.502;2023-04-16T01:11:58;9.10;99.90
52555;DHT22;38455;52.710;6.502;2023-04-16T01:14:24;9.10;99.90
52555;DHT22;38455;52.710;6.502;2023-04-16T01:16:49;9.10;99.90
52555;DHT22;38455;52.710;6.502;2023-04-16T01:19:15;9.10;99.90
52555;DHT22;38455;52.710;6.502;2023-04-16T01:21:40;9.10;99.90
52555;DHT22;38455;52.710;6.502;2023-04-16T01:24:06;9.00;99.90
52555;DHT22;38455;52.710;6.502;2023-04-16T01:26:32;9.10;99.90
52555;DHT22;38455;52.710;6.502;2023-04-16T01:28:58;9.10;99.90
52555;DHT22;38455;52.710;6.502;2023-04-16T01:31:24;9.20;99.90
52555;DHT22;38455;52.710;6.502;2023-04-16T01:33:50;9.10;99.90
52555;DHT22;38455;52.710;6.502;2023-04-16T01:36:15;9.10;99.90
52555;DHT22;38455;52.710;6.502;2023-04-16T01:38:41;9.10;99.90
52555;DHT22;38455;52.710;6.502;2023-04-16T01:41:07;9.10;99.90
52555;DHT22;38455;52.710;6.502;2023-04-16T01:43:32;9.10;99.90
52555;DHT22;38455;52.710;6.502;2023-04-16T01:46:27;9.10;99.90
52555;DHT22;38455;52.710;6.502;2023-04-16T01:48:54;9.10;99.90
52555;DHT22;38455;52.710;6.502;2023-04-16T01:51:20;9.10;99.90
52555;DHT22;38455;52.710;6.502;2023-04-16T01:53:46;9.10;99.90
52555;DHT22;38455;52.710;6.502;2023-04-16T01:56:11;9.10;99.90
52555;DHT22;38455;52.710;6.502;2023-04-16T01:58:37;9.10;99.90
52555;DHT22;38455;52.710;6.502;2023-04-16T02:01:03;9.10;99.90
52555;DHT22;38455;52.710;6.502;2023-04-16T02:03:30;9.10;99.90
52555;DHT22;38455;52.710;6.502;2023-04-16T02:05:56;9.20;99.90
52555;DHT22;38455;52.710;6.502;2023-04-16T02:08:22;9.10;99.90
52555;DHT22;38455;52.710;6.502;2023-04-16T02:10:50;9.10;99.90
52555;DHT22;38455;52.710;6.502;2023-04-16T02:13:16;9.20;99.90
52555;DHT22;38455;52.710;6.502;2023-04-16T02:15:49;9.20;99.90
52555;DHT22;38455;52.710;6.502;2023-04-16T02:18:15;9.20;99.90
52555;DHT22;38455;52.710;6.502;2023-04-16T02:20:45;9.10;99.90
52555;DHT22;38455;52.710;6.502;2023-04-16T02:23:12;9.20;99.90
52555;DHT22;38455;52.710;6.502;2023-04-16T02:25:43;9.10;99.90
52555;DHT22;38455;52.710;6.502;2023-04-16T02:28:11;9.20;99.90
52555;DHT22;38455;52.710;6.502;2023-04-16T02:30:38;9.10;99.90
52555;DHT22;38455;52.710;6.502;2023-04-16T02:33:04;9.10;99.90
52555;DHT22;38455;52.710;6.502;2023-04-16T02:35:32;9.10;99.90
52555;DHT22;38455;52.710;6.502;2023-04-16T02:37:57;9.10;99.90
52555;DHT22;38455;52.710;6.502;2023-04-16T02:40:23;9.10;99.90
52555;DHT22;38455;52.710;6.502;2023-04-16T02:42:49;9.10;99.90
52555;DHT22;38455;52.710;6.502;2023-04-16T02:45:15;9.00;99.90
52555;DHT22;38455;52.710;6.502;2023-04-16T02:47:40;9.10;99.90
52555;DHT22;38455;52.710;6.502;2023-04-16T02:50:07;9.10;99.90
52555;DHT22;38455;52.710;6.502;2023-04-16T02:52:32;9.10;99.90
52555;DHT22;38455;52.710;6.502;2023-04-16T02:54:58;9.10;99.90
52555;DHT22;38455;52.710;6.502;2023-04-16T02:57:24;9.10;99.90
52555;DHT22;38455;52.710;6.502;2023-04-16T02:59:50;9.00;99.90
52555;DHT22;38455;52.710;6.502;2023-04-16T03:02:15;9.10;99.90
52555;DHT22;38455;52.710;6.502;2023-04-16T03:04:41;9.00;99.90
52555;DHT22;38455;52.710;6.502;2023-04-16T03:07:07;8.90;99.90
52555;DHT22;38455;52.710;6.502;2023-04-16T03:09:34;9.00;99.90
52555;DHT22;38455;52.710;6.502;2023-04-16T03:12:00;9.00;99.90
52555;DHT22;38455;52.710;6.502;2023-04-16T03:14:29;9.00;99.90
52555;DHT22;38455;52.710;6.502;2023-04-16T03:16:55;9.00;99.90
52555;DHT22;38455;52.710;6.502;2023-04-16T03:19:21;9.00;99.90
52555;DHT22;38455;52.710;6.502;2023-04-16T03:21:47;9.00;99.90
52555;DHT22;38455;52.710;6.502;2023-04-16T03:24:12;9.00;99.90
52555;DHT22;38455;52.710;6.502;2023-04-16T03:26:39;9.00;99.90
52555;DHT22;38455;52.710;6.502;2023-04-16T03:29:05;9.00;99.90
52555;DHT22;38455;52.710;6.502;2023-04-16T03:31:30;9.00;99.90
52555;DHT22;38455;52.710;6.502;2023-04-16T03:33:56;9.00;99.90
52555;DHT22;38455;52.710;6.502;2023-04-16T03:36:21;9.00;99.90
52555;DHT22;38455;52.710;6.502;2023-04-16T03:38:48;8.90;99.90
52555;DHT22;38455;52.710;6.502;2023-04-16T03:41:13;8.90;99.90
52555;DHT22;38455;52.710;6.502;2023-04-16T03:43:39;9.00;99.90
52555;DHT22;38455;52.710;6.502;2023-04-16T03:46:05;8.90;99.90
52555;DHT22;38455;52.710;6.502;2023-04-16T03:48:31;8.90;99.90
52555;DHT22;38455;52.710;6.502;2023-04-16T03:50:56;8.90;99.90
52555;DHT22;38455;52.710;6.502;2023-04-16T03:53:22;9.00;99.90
52555;DHT22;38455;52.710;6.502;2023-04-16T03:55:51;8.90;99.90
52555;DHT22;38455;52.710;6.502;2023-04-16T03:58:17;9.00;99.90
52555;DHT22;38455;52.710;6.502;2023-04-16T04:00:43;8.90;99.90
52555;DHT22;38455;52.710;6.502;2023-04-16T04:03:09;8.90;99.90
52555;DHT22;38455;52.710;6.502;2023-04-16T04:05:39;8.90;99.90
52555;DHT22;38455;52.710;6.502;2023-04-16T04:08:05;8.90;99.90
52555;DHT22;38455;52.710;6.502;2023-04-16T04:10:32;8.90;99.90
52555;DHT22;38455;52.710;6.502;2023-04-16T04:12:57;8.80;99.90
52555;DHT22;38455;52.710;6.502;2023-04-16T04:15:23;8.90;99.90
52555;DHT22;38455;52.710;6.502;2023-04-16T04:17:49;8.80;99.90
52555;DHT22;38455;52.710;6.502;2023-04-16T04:20:14;8.80;99.90
52555;DHT22;38455;52.710;6.502;2023-04-16T04:22:40;8.80;99.90
52555;DHT22;38455;52.710;6.502;2023-04-16T04:25:08;8.80;99.90
52555;DHT22;38455;52.710;6.502;2023-04-16T04:27:34;8.80;99.90
52555;DHT22;38455;52.710;6.502;2023-04-16T04:30:00;8.80;99.90
52555;DHT22;38455;52.710;6.502;2023-04-16T04:32:25;8.80;99.90
52555;DHT22;38455;52.710;6.502;2023-04-16T04:34:51;8.80;99.90
52555;DHT22;38455;52.710;6.502;2023-04-16T04:37:16;8.80;99.90
52555;DHT22;38455;52.710;6.502;2023-04-16T04:39:42;8.80;99.90
52555;DHT22;38455;52.710;6.502;2023-04-16T04:42:08;8.80;99.90
52555;DHT22;38455;52.710;6.502;2023-04-16T04:44:34;8.80;99.90
52555;DHT22;38455;52.710;6.502;2023-04-16T04:46:59;8.80;99.90
52555;DHT22;38455;52.710;6.502;2023-04-16T04:49:25;8.90;99.90
52555;DHT22;38455;52.710;6.502;2023-04-16T04:51:50;8.80;99.90
52555;DHT22;38455;52.710;6.502;2023-04-16T04:54:16;8.90;99.90
52555;DHT22;38455;52.710;6.502;2023-04-16T04:56:42;8.80;99.90
52555;DHT22;38455;52.710;6.502;2023-04-16T04:59:10;8.90;99.90
52555;DHT22;38455;52.710;6.502;2023-04-16T05:01:37;8.90;99.90
52555;DHT22;38455;52.710;6.502;2023-04-16T05:04:02;8.90;99.90
52555;DHT22;38455;52.710;6.502;2023-04-16T05:06:28;8.90;99.90
52555;DHT22;38455;52.710;6.502;2023-04-16T05:08:54;8.90;99.90
52555;DHT22;38455;52.710;6.502;2023-04-16T05:11:19;9.00;99.90
52555;DHT22;38455;52.710;6.502;2023-04-16T05:13:45;8.90;99.90
52555;DHT22;38455;52.710;6.502;2023-04-16T05:16:10;9.00;99.90
52555;DHT22;38455;52.710;6.502;2023-04-16T05:18:36;9.00;99.90
52555;DHT22;38455;52.710;6.502;2023-04-16T05:21:02;9.00;99.90
52555;DHT22;38455;52.710;6.502;2023-04-16T05:23:28;9.00;99.90
52555;DHT22;38455;52.710;6.502;2023-04-16T05:25:53;9.10;99.90
52555;DHT22;38455;52.710;6.502;2023-04-16T05:28:19;9.00;99.90
52555;DHT22;38455;52.710;6.502;2023-04-16T05:30:45;9.00;99.90
52555;DHT22;38455;52.710;6.502;2023-04-16T05:33:11;9.10;99.90
52555;DHT22;38455;52.710;6.502;2023-04-16T05:35:36;9.10;99.90
52555;DHT22;38455;52.710;6.502;2023-04-16T05:38:02;9.10;99.90
52555;DHT22;38455;52.710;6.502;2023-04-16T05:40:30;9.00;99.90
52555;DHT22;38455;52.710;6.502;2023-04-16T05:42:55;9.10;99.90
52555;DHT22;38455;52.710;6.502;2023-04-16T05:45:21;9.10;99.90
52555;DHT22;38455;52.710;6.502;2023-04-16T05:47:47;9.10;99.90
52555;DHT22;38455;52.710;6.502;2023-04-16T05:50:12;9.20;99.90
52555;DHT22;38455;52.710;6.502;2023-04-16T05:52:38;9.20;99.90
52555;DHT22;38455;52.710;6.502;2023-04-16T05:55:04;9.30;99.90
52555;DHT22;38455;52.710;6.502;2023-04-16T05:57:31;9.40;99.90
52555;DHT22;38455;52.710;6.502;2023-04-16T05:59:57;9.40;99.90
52555;DHT22;38455;52.710;6.502;2023-04-16T06:02:22;9.40;99.90
52555;DHT22;38455;52.710;6.502;2023-04-16T06:04:48;9.40;99.90
52555;DHT22;38455;52.710;6.502;2023-04-16T06:07:14;9.50;99.90
52555;DHT22;38455;52.710;6.502;2023-04-16T06:09:40;9.50;99.90
52555;DHT22;38455;52.710;6.502;2023-04-16T06:12:06;9.50;99.90
52555;DHT22;38455;52.710;6.502;2023-04-16T06:14:32;9.50;99.90
52555;DHT22;38455;52.710;6.502;2023-04-16T06:16:57;9.50;99.90
52555;DHT22;38455;52.710;6.502;2023-04-16T06:19:23;9.40;99.90
52555;DHT22;38455;52.710;6.502;2023-04-16T06:21:49;9.40;99.90
52555;DHT22;38455;52.710;6.502;2023-04-16T06:24:15;9.60;99.90
52555;DHT22;38455;52.710;6.502;2023-04-16T06:26:43;9.70;99.90
52555;DHT22;38455;52.710;6.502;2023-04-16T06:29:08;9.90;99.90
52555;DHT22;38455;52.710;6.502;2023-04-16T06:31:34;9.90;99.90
52555;DHT22;38455;52.710;6.502;2023-04-16T06:33:59;9.90;99.90
52555;DHT22;38455;52.710;6.502;2023-04-16T06:36:25;10.00;99.90
52555;DHT22;38455;52.710;6.502;2023-04-16T06:38:52;10.20;99.90
52555;DHT22;38455;52.710;6.502;2023-04-16T06:41:18;10.60;99.90
52555;DHT22;38455;52.710;6.502;2023-04-16T06:43:43;10.80;99.90
52555;DHT22;38455;52.710;6.502;2023-04-16T06:46:09;10.90;99.90
52555;DHT22;38455;52.710;6.502;2023-04-16T06:48:35;10.80;99.90
52555;DHT22;38455;52.710;6.502;2023-04-16T06:51:01;11.00;99.90
52555;DHT22;38455;52.710;6.502;2023-04-16T06:53:26;11.00;99.90
52555;DHT22;38455;52.710;6.502;2023-04-16T06:55:52;10.80;99.90
52555;DHT22;38455;52.710;6.502;2023-04-16T06:58:17;10.70;99.90
52555;DHT22;38455;52.710;6.502;2023-04-16T07:00:43;10.60;99.90
52555;DHT22;38455;52.710;6.502;2023-04-16T07:03:09;10.90;99.90
52555;DHT22;38455;52.710;6.502;2023-04-16T07:05:35;11.10;99.90
52555;DHT22;38455;52.710;6.502;2023-04-16T07:08:00;11.20;99.90
52555;DHT22;38455;52.710;6.502;2023-04-16T07:10:26;11.20;99.90
52555;DHT22;38455;52.710;6.502;2023-04-16T07:12:51;11.30;99.90
52555;DHT22;38455;52.710;6.502;2023-04-16T07:15:17;11.30;99.90
52555;DHT22;38455;52.710;6.502;2023-04-16T07:17:43;11.40;99.90
52555;DHT22;38455;52.710;6.502;2023-04-16T07:20:09;11.80;99.90
52555;DHT22;38455;52.710;6.502;2023-04-16T07:22:34;12.10;99.90
52555;DHT22;38455;52.710;6.502;2023-04-16T07:25:00;12.00;99.90
52555;DHT22;38455;52.710;6.502;2023-04-16T07:27:26;12.00;99.90
52555;DHT22;38455;52.710;6.502;2023-04-16T07:29:51;12.00;99.90
52555;DHT22;38455;52.710;6.502;2023-04-16T07:32:17;11.90;99.90
52555;DHT22;38455;52.710;6.502;2023-04-16T07:34:43;11.80;99.90
52555;DHT22;38455;52.710;6.502;2023-04-16T07:37:08;11.80;99.90
52555;DHT22;38455;52.710;6.502;2023-04-16T07:39:34;12.00;99.90
52555;DHT22;38455;52.710;6.502;2023-04-16T07:41:59;12.00;99.90
52555;DHT22;38455;52.710;6.502;2023-04-16T07:44:25;12.10;99.90
52555;DHT22;38455;52.710;6.502;2023-04-16T07:46:51;12.40;99.90
52555;DHT22;38455;52.710;6.502;2023-04-16T07:49:16;12.90;99.90
52555;DHT22;38455;52.710;6.502;2023-04-16T07:51:42;13.10;99.90
52555;DHT22;38455;52.710;6.502;2023-04-16T07:54:08;13.20;99.90
52555;DHT22;38455;52.710;6.502;2023-04-16T07:56:34;13.30;99.90
52555;DHT22;38455;52.710;6.502;2023-04-16T07:59:00;13.50;99.90
52555;DHT22;38455;52.710;6.502;2023-04-16T08:01:26;13.80;99.90
52555;DHT22;38455;52.710;6.502;2023-04-16T08:03:51;14.10;99.90
52555;DHT22;38455;52.710;6.502;2023-04-16T08:06:17;14.20;99.90
52555;DHT22;38455;52.710;6.502;2023-04-16T08:08:42;14.50;99.90
52555;DHT22;38455;52.710;6.502;2023-04-16T08:11:08;14.60;99.90
52555;DHT22;38455;52.710;6.502;2023-04-16T08:13:34;14.20;99.90
52555;DHT22;38455;52.710;6.502;2023-04-16T08:15:59;14.10;99.90
52555;DHT22;38455;52.710;6.502;2023-04-16T08:18:26;14.10;99.90
52555;DHT22;38455;52.710;6.502;2023-04-16T08:20:51;14.10;99.90
52555;DHT22;38455;52.710;6.502;2023-04-16T08:23:17;14.00;99.90
52555;DHT22;38455;52.710;6.502;2023-04-16T08:25:43;13.90;99.90
52555;DHT22;38455;52.710;6.502;2023-04-16T08:28:08;13.60;99.90
52555;DHT22;38455;52.710;6.502;2023-04-16T08:30:34;13.60;99.90
52555;DHT22;38455;52.710;6.502;2023-04-16T08:33:00;13.40;99.90
52555;DHT22;38455;52.710;6.502;2023-04-16T08:35:26;13.40;99.90
52555;DHT22;38455;52.710;6.502;2023-04-16T08:37:51;13.40;99.90
52555;DHT22;38455;52.710;6.502;2023-04-16T08:40:18;13.20;99.90
52555;DHT22;38455;52.710;6.502;2023-04-16T08:42:53;13.00;99.90
52555;DHT22;38455;52.710;6.502;2023-04-16T08:45:20;12.90;99.90
52555;DHT22;38455;52.710;6.502;2023-04-16T08:47:47;12.90;99.90
52555;DHT22;38455;52.710;6.502;2023-04-16T08:50:15;12.90;99.90
52555;DHT22;38455;52.710;6.502;2023-04-16T08:52:46;12.90;99.90
52555;DHT22;38455;52.710;6.502;2023-04-16T08:55:15;12.90;99.90
52555;DHT22;38455;52.710;6.502;2023-04-16T08:58:04;12.90;99.90
52555;DHT22;38455;52.710;6.502;2023-04-16T09:00:31;13.00;99.90
52555;DHT22;38455;52.710;6.502;2023-04-16T09:02:57;13.30;99.90
52555;DHT22;38455;52.710;6.502;2023-04-16T09:05:24;13.70;99.90
52555;DHT22;38455;52.710;6.502;2023-04-16T09:07:51;15.00;99.90
52555;DHT22;38455;52.710;6.502;2023-04-16T09:10:18;15.40;99.90
52555;DHT22;38455;52.710;6.502;2023-04-16T09:12:44;15.10;99.90
52555;DHT22;38455;52.710;6.502;2023-04-16T09:15:11;14.80;99.90
52555;DHT22;38455;52.710;6.502;2023-04-16T09:17:37;14.50;99.90
52555;DHT22;38455;52.710;6.502;2023-04-16T09:20:07;14.40;99.90
52555;DHT22;38455;52.710;6.502;2023-04-16T09:22:34;14.20;99.90
52555;DHT22;38455;52.710;6.502;2023-04-16T09:25:00;14.20;99.90
52555;DHT22;38455;52.710;6.502;2023-04-16T09:27:26;14.30;99.90
52555;DHT22;38455;52.710;6.502;2023-04-16T09:29:51;14.40;99.90
52555;DHT22;38455;52.710;6.502;2023-04-16T09:32:24;14.50;99.90
52555;DHT22;38455;52.710;6.502;2023-04-16T09:34:59;14.60;99.90
52555;DHT22;38455;52.710;6.502;2023-04-16T09:37:29;14.70;99.90
52555;DHT22;38455;52.710;6.502;2023-04-16T09:40:00;15.10;99.90
52555;DHT22;38455;52.710;6.502;2023-04-16T09:42:27;15.10;99.90
52555;DHT22;38455;52.710;6.502;2023-04-16T09:44:53;15.20;99.90
52555;DHT22;38455;52.710;6.502;2023-04-16T09:47:20;15.00;99.90
52555;DHT22;38455;52.710;6.502;2023-04-16T09:49:46;15.10;99.90
52555;DHT22;38455;52.710;6.502;2023-04-16T09:52:13;14.80;99.90
52555;DHT22;38455;52.710;6.502;2023-04-16T09:55:00;14.80;99.90
52555;DHT22;38455;52.710;6.502;2023-04-16T09:57:26;14.70;99.90
52555;DHT22;38455;52.710;6.502;2023-04-16T10:00:00;14.70;99.90
52555;DHT22;38455;52.710;6.502;2023-04-16T10:02:27;14.90;99.90
52555;DHT22;38455;52.710;6.502;2023-04-16T10:04:53;15.30;99.90
52555;DHT22;38455;52.710;6.502;2023-04-16T10:07:19;15.70;99.90
52555;DHT22;38455;52.710;6.502;2023-04-16T10:09:46;16.50;99.90
52555;DHT22;38455;52.710;6.502;2023-04-16T10:12:13;17.60;99.90
52555;DHT22;38455;52.710;6.502;2023-04-16T10:14:40;18.50;99.90
52555;DHT22;38455;52.710;6.502;2023-04-16T10:17:07;19.60;99.90
52555;DHT22;38455;52.710;6.502;2023-04-16T10:19:34;20.60;99.90
52555;DHT22;38455;52.710;6.502;2023-04-16T10:22:01;21.20;99.90
52555;DHT22;38455;52.710;6.502;2023-04-16T10:24:31;21.60;99.90
52555;DHT22;38455;52.710;6.502;2023-04-16T10:26:58;22.10;99.90
52555;DHT22;38455;52.710;6.502;2023-04-16T10:29:26;22.60;99.90
52555;DHT22;38455;52.710;6.502;2023-04-16T10:31:52;23.00;99.30
52555;DHT22;38455;52.710;6.502;2023-04-16T10:34:19;23.00;98.00
52555;DHT22;38455;52.710;6.502;2023-04-16T10:36:48;23.40;97.30
52555;DHT22;38455;52.710;6.502;2023-04-16T10:39:21;23.60;94.60
52555;DHT22;38455;52.710;6.502;2023-04-16T10:41:47;23.40;92.10
52555;DHT22;38455;52.710;6.502;2023-04-16T10:44:16;23.60;92.60
52555;DHT22;38455;52.710;6.502;2023-04-16T10:46:44;23.70;91.30
52555;DHT22;38455;52.710;6.502;2023-04-16T10:49:24;23.50;90.50
52555;DHT22;38455;52.710;6.502;2023-04-16T10:51:54;23.80;88.60
52555;DHT22;38455;52.710;6.502;2023-04-16T10:54:30;23.60;87.00
52555;DHT22;38455;52.710;6.502;2023-04-16T10:56:59;23.80;89.70
52555;DHT22;38455;52.710;6.502;2023-04-16T10:59:30;22.80;90.60
52555;DHT22;38455;52.710;6.502;2023-04-16T11:01:58;22.60;90.10
52555;DHT22;38455;52.710;6.502;2023-04-16T11:04:28;22.40;89.30
52555;DHT22;38455;52.710;6.502;2023-04-16T11:10:00;22.10;88.40
52555;DHT22;38455;52.710;6.502;2023-04-16T11:17:41;21.90;91.50
52555;DHT22;38455;52.710;6.502;2023-04-16T11:20:15;22.00;91.50
52555;DHT22;38455;52.710;6.502;2023-04-16T11:22:41;22.00;90.80
52555;DHT22;38455;52.710;6.502;2023-04-16T11:25:08;22.00;91.80
52555;DHT22;38455;52.710;6.502;2023-04-16T11:27:34;21.80;91.70
52555;DHT22;38455;52.710;6.502;2023-04-16T11:30:02;21.40;92.00
52555;DHT22;38455;52.710;6.502;2023-04-16T11:32:36;21.20;92.60
52555;DHT22;38455;52.710;6.502;2023-04-16T11:35:04;20.60;93.80
52555;DHT22;38455;52.710;6.502;2023-04-16T11:37:38;20.20;93.30
52555;DHT22;38455;52.710;6.502;2023-04-16T11:40:08;19.90;93.80
52555;DHT22;38455;52.710;6.502;2023-04-16T11:42:38;19.90;94.70
52555;DHT22;38455;52.710;6.502;2023-04-16T11:45:08;19.90;94.80
52555;DHT22;38455;52.710;6.502;2023-04-16T11:47:49;19.90;95.70
52555;DHT22;38455;52.710;6.502;2023-04-16T11:50:27;20.00;95.90
52555;DHT22;38455;52.710;6.502;2023-04-16T11:52:55;19.70;96.60
52555;DHT22;38455;52.710;6.502;2023-04-16T11:55:21;19.50;97.10
52555;DHT22;38455;52.710;6.502;2023-04-16T11:57:48;19.40;96.90
52555;DHT22;38455;52.710;6.502;2023-04-16T12:00:14;19.00;97.70
52555;DHT22;38455;52.710;6.502;2023-04-16T12:02:43;18.90;98.40
52555;DHT22;38455;52.710;6.502;2023-04-16T12:05:33;18.70;98.90
52555;DHT22;38455;52.710;6.502;2023-04-16T12:08:07;18.60;99.50
52555;DHT22;38455;52.710;6.502;2023-04-16T12:10:53;18.60;99.90
52555;DHT22;38455;52.710;6.502;2023-04-16T12:13:19;18.60;99.90
52555;DHT22;38455;52.710;6.502;2023-04-16T12:15:50;18.20;99.90
52555;DHT22;38455;52.710;6.502;2023-04-16T12:18:17;18.30;99.90
52555;DHT22;38455;52.710;6.502;2023-04-16T12:20:43;18.30;99.90
52555;DHT22;38455;52.710;6.502;2023-04-16T12:23:20;18.30;99.90
52555;DHT22;38455;52.710;6.502;2023-04-16T12:25:46;18.40;99.90
52555;DHT22;38455;52.710;6.502;2023-04-16T12:28:14;18.30;99.90
52555;DHT22;38455;52.710;6.502;2023-04-16T12:30:50;18.50;99.90
52555;DHT22;38455;52.710;6.502;2023-04-16T12:33:18;18.60;99.90
52555;DHT22;38455;52.710;6.502;2023-04-16T12:35:44;18.90;99.90
52555;DHT22;38455;52.710;6.502;2023-04-16T12:38:10;18.90;99.90
52555;DHT22;38455;52.710;6.502;2023-04-16T12:40:37;18.90;99.90
52555;DHT22;38455;52.710;6.502;2023-04-16T12:43:02;18.90;99.90
52555;DHT22;38455;52.710;6.502;2023-04-16T12:45:28;18.70;99.90
52555;DHT22;38455;52.710;6.502;2023-04-16T12:47:54;18.40;99.90
52555;DHT22;38455;52.710;6.502;2023-04-16T12:50:20;18.20;99.90
52555;DHT22;38455;52.710;6.502;2023-04-16T12:52:46;18.10;99.90
52555;DHT22;38455;52.710;6.502;2023-04-16T12:55:12;18.00;99.90
52555;DHT22;38455;52.710;6.502;2023-04-16T12:57:38;18.20;99.90
52555;DHT22;38455;52.710;6.502;2023-04-16T13:00:05;18.40;99.90
52555;DHT22;38455;52.710;6.502;2023-04-16T13:02:31;18.50;99.90
52555;DHT22;38455;52.710;6.502;2023-04-16T13:04:57;18.70;99.90
52555;DHT22;38455;52.710;6.502;2023-04-16T13:07:23;18.80;99.90
52555;DHT22;38455;52.710;6.502;2023-04-16T13:09:51;19.00;99.90
52555;DHT22;38455;52.710;6.502;2023-04-16T13:12:16;19.20;99.90
52555;DHT22;38455;52.710;6.502;2023-04-16T13:14:42;19.40;99.90
52555;DHT22;38455;52.710;6.502;2023-04-16T13:17:08;19.60;99.90
52555;DHT22;38455;52.710;6.502;2023-04-16T13:19:34;20.10;99.90
52555;DHT22;38455;52.710;6.502;2023-04-16T13:21:59;20.60;99.90
52555;DHT22;38455;52.710;6.502;2023-04-16T13:24:25;20.50;99.40
52555;DHT22;38455;52.710;6.502;2023-04-16T13:26:51;20.00;99.50
52555;DHT22;38455;52.710;6.502;2023-04-16T13:29:17;19.40;99.60
52555;DHT22;38455;52.710;6.502;2023-04-16T13:31:43;19.20;99.90
52555;DHT22;38455;52.710;6.502;2023-04-16T13:34:09;19.10;99.90
52555;DHT22;38455;52.710;6.502;2023-04-16T13:36:35;19.30;99.90
52555;DHT22;38455;52.710;6.502;2023-04-16T13:39:00;19.10;99.90
52555;DHT22;38455;52.710;6.502;2023-04-16T13:41:29;18.90;99.90
52555;DHT22;38455;52.710;6.502;2023-04-16T13:43:55;18.70;99.90
52555;DHT22;38455;52.710;6.502;2023-04-16T13:46:20;19.20;99.90
52555;DHT22;38455;52.710;6.502;2023-04-16T13:48:46;19.90;99.90
52555;DHT22;38455;52.710;6.502;2023-04-16T13:51:11;20.20;99.70
52555;DHT22;38455;52.710;6.502;2023-04-16T13:53:39;20.90;99.60
52555;DHT22;38455;52.710;6.502;2023-04-16T13:56:05;20.90;98.70
52555;DHT22;38455;52.710;6.502;2023-04-16T13:58:31;20.50;98.50
52555;DHT22;38455;52.710;6.502;2023-04-16T14:00:57;20.20;99.40
52555;DHT22;38455;52.710;6.502;2023-04-16T14:03:24;19.90;99.50
52555;DHT22;38455;52.710;6.502;2023-04-16T14:05:51;19.90;99.90
52555;DHT22;38455;52.710;6.502;2023-04-16T14:08:16;19.90;99.90
52555;DHT22;38455;52.710;6.502;2023-04-16T14:10:42;19.80;99.90
52555;DHT22;38455;52.710;6.502;2023-04-16T14:13:08;19.30;99.90
52555;DHT22;38455;52.710;6.502;2023-04-16T14:15:33;19.10;99.90
52555;DHT22;38455;52.710;6.502;2023-04-16T14:17:59;18.90;99.90
52555;DHT22;38455;52.710;6.502;2023-04-16T14:20:26;18.90;99.90
52555;DHT22;38455;52.710;6.502;2023-04-16T14:22:51;18.70;99.90
52555;DHT22;38455;52.710;6.502;2023-04-16T14:25:17;18.60;99.90
52555;DHT22;38455;52.710;6.502;2023-04-16T14:27:43;18.60;99.90
52555;DHT22;38455;52.710;6.502;2023-04-16T14:30:08;18.40;99.90
52555;DHT22;38455;52.710;6.502;2023-04-16T14:32:34;18.10;99.90
52555;DHT22;38455;52.710;6.502;2023-04-16T14:35:00;17.90;99.90
52555;DHT22;38455;52.710;6.502;2023-04-16T14:37:26;17.80;99.90
52555;DHT22;38455;52.710;6.502;2023-04-16T14:39:52;17.70;99.90
52555;DHT22;38455;52.710;6.502;2023-04-16T14:42:18;17.90;99.90
52555;DHT22;38455;52.710;6.502;2023-04-16T14:44:44;17.80;99.90
52555;DHT22;38455;52.710;6.502;2023-04-16T14:47:09;17.80;99.90
52555;DHT22;38455;52.710;6.502;2023-04-16T14:49:35;17.70;99.90
52555;DHT22;38455;52.710;6.502;2023-04-16T14:52:01;17.80;99.90
52555;DHT22;38455;52.710;6.502;2023-04-16T14:54:27;17.50;99.90
52555;DHT22;38455;52.710;6.502;2023-04-16T14:56:53;17.30;99.90
52555;DHT22;38455;52.710;6.502;2023-04-16T14:59:19;17.20;99.90
52555;DHT22;38455;52.710;6.502;2023-04-16T15:01:44;17.10;99.90
52555;DHT22;38455;52.710;6.502;2023-04-16T15:04:10;17.10;99.90
52555;DHT22;38455;52.710;6.502;2023-04-16T15:06:36;17.00;99.90
52555;DHT22;38455;52.710;6.502;2023-04-16T15:09:02;17.00;99.90
52555;DHT22;38455;52.710;6.502;2023-04-16T15:11:28;16.90;99.90
52555;DHT22;38455;52.710;6.502;2023-04-16T15:13:54;17.00;99.90
52555;DHT22;38455;52.710;6.502;2023-04-16T15:16:20;17.00;99.90
52555;DHT22;38455;52.710;6.502;2023-04-16T15:18:46;17.10;99.90
52555;DHT22;38455;52.710;6.502;2023-04-16T15:21:12;17.10;99.90
52555;DHT22;38455;52.710;6.502;2023-04-16T15:23:37;17.10;99.90
52555;DHT22;38455;52.710;6.502;2023-04-16T15:26:03;17.20;99.90
52555;DHT22;38455;52.710;6.502;2023-04-16T15:28:29;17.10;99.90
52555;DHT22;38455;52.710;6.502;2023-04-16T15:30:55;17.00;99.90
52555;DHT22;38455;52.710;6.502;2023-04-16T15:33:21;16.90;99.90
52555;DHT22;38455;52.710;6.502;2023-04-16T15:35:47;16.90;99.90
52555;DHT22;38455;52.710;6.502;2023-04-16T15:38:13;16.90;99.90
52555;DHT22;38455;52.710;6.502;2023-04-16T15:40:40;16.70;99.90
52555;DHT22;38455;52.710;6.502;2023-04-16T15:43:05;16.60;99.90